Airfield :







YOU CAN JOIN US ON...

 
LOGIN :

Register | Disclaimer

   EN    FR    IT 

 









Legend :    VFR   Marginal VFR   IFR   Intensive IFR   Very Intensive IFR
Visi :
Ceiling :
>= 8 km
>= 3000ft
5 to 8 km
1000 to 3000 ft
1500m to 5 km
500 to 1000 ft
800 to 1500m
200 to 500 ft
< 800m
< 200 ft
Symbols :   Thunderstorms  Fog  Heavy snow  Heavy precipitations  Wind > 20 kt






- Airport Elevation : 35 ft
- IATA code : YGR


CYGR - ëles-de-la-Madeleine

CURRENT METAR :
  • 151226Z 19019G32KT 5/8SM BR OVC002 09/08 A2907 RMK FG5SF3 SLP847 DENSITY ALT 300FT

EXPIRED METARs :
  • 151200Z 19019G32KT 2SM BR OVC002 09/09 A2908 RMK FG3SF5 VIS VRB 1-3 PRESFR SLP850 DENSITY ALT 400FT
  • 151134Z 19018G31KT 3/4SM BR OVC002 09/08 A2910 RMK FG5SF3 VIS E 2 SLP857 DENSITY ALT 300FT
  • 151100Z 19021G30KT 2SM BR OVC003 11/10 A2912 RMK FG3SF5 SLP863 DENSITY ALT 500FT
  • 151022Z 19020G32KT 2SM BR OVC002 09/08 A2914 RMK FG4SF4 SLP868 DENSITY ALT 300FT
  • 151000Z 19020G34KT 5/8SM BR OVC002 09/09 A2913 RMK FG5SF3 /R13 AFT 00Z/ SLP867 DENSITY ALT 300FT

TAF TAF CYGR
Valid from the 15 at 12:00 until the 16 at 00:00 UTC


151140Z 1512/1524 19020G30KT 3/4SM -RA BR VV002
TEMPO 1512/1518 6SM BR OVC010
BECMG 1512/1514 19025G40KT
FM151800 22025G40KT P6SM OVC010
TEMPO 1518/1520 5SM -DZ BR OVC008
FM152000 24030G40KT P6SM BKN020
TEMPO 1520/1524 BKN025
BECMG 1521/1523 26030G45KT RMK NXT FCST BY 151400Z



MET'MAP, your aeronautical weather chart ! - Copyright ORBIFLY December 2007 - Disclaimer

ORBIFLY MET'MAP TEAM :

Programming & Development : Alexandra Zaïnal
Concept & original design : Baudouin d'Aumeries
Assistance for programming : Marc-Olivier Méhu
Technical & hardware support : Manuel Goepfert

Contact : metmap@orbifly.com




SOURCES & CREDITS :

   NOAA